Gaylord, MI (49734)

7:41 AM EDT on July 24, 2016 (GMT -0400)
Alpine Center | | Change Station

Elev 1385 ft 45.04 °N, 84.67 °W | Updated 2 minutes ago

Overcast
Overcast
70.9 °F
Feels Like 72 °F
N
5.8
Wind Variable Wind from SSE

Today
High -- | Low -- °F
--% Chance of Precip.
Yesterday
High -- | Low -- °F
Precip. -- in
Pressure 29.89 in
Visibility 10.0 miles
Clouds Few 7000 ft
Scattered Clouds 8000 ft
Overcast 11000 ft
Heat Index 72 °F
Dew Point 64 °F
Humidity 78%
Rainfall 0.00 in
Snow Depth Not available.
6:15 AM 9:14 PM
Waning Gibbous, 77% visible
METAR KGLR 241053Z AUTO 20006KT 10SM FEW070 SCT080 OVC110 23/16 A2992 RMK AO2 SLP122 T02280161
Pressure 29.89 in
Visibility 10.0 miles
Clouds Few 7000 ft
Scattered Clouds 8000 ft
Overcast 11000 ft
Heat Index 72 °F
Dew Point 64 °F
Humidity 78%
Rainfall 0.00 in
Snow Depth Not available.
6:15 AM 9:14 PM
Waning Gibbous, 77% visible
METAR KGLR 241053Z AUTO 20006KT 10SM FEW070 SCT080 OVC110 23/16 A2992 RMK AO2 SLP122 T02280161

10-Day Weather Forecast

Almanac

Astronomy

Jul. 24, 2016 Rise Set
Actual Time
Civil Twilight
Nautical Twilight
Astronomical Twilight
Moon
Length of Visible Light
Length of Day
Tomorrow will be .
, % of the Moon is Illuminated

Today's Extremes

State Highs State Lows

Community

WunderPhotos

Upload Photos

1,927,049 photos uploaded!

WunderBlog® & News

Nearby

Air Quality

  Air Quality AQ Index Pollutant
Not available.

Snow Depth

Station Depth Elevation

Earthquake Activity

City Distance Mag. Time & Date
Minimum magnitude displayed is 2.5.

Coastal Water Temperatures

Place Temperature

Stations

Nearby Weather Stations

Station Location Temp. Windchill Dew Point Humidity Wind Precip. Elev Updated Type
                   

Watches & Warnings

There are currently no watches in effect.